Time;durP1;ratioP1;P1;durP2;ratioP2;P2;SDS_P1;SDS_P2;PMS_P1;PMS_P2;Temp;Humidity;BMP_temperature;BMP_pressure;BME280_temperature;BME280_humidity;BME280_pressure;Samples;Min_cycle;Max_cycle;Signal;HPM_P1;HPM_P2
2022/02/05 00:01:54;;;;;;;11.50;6.13;;;;;;;5.54;74.58;100209.88;5060865;28;20056;-57
2022/02/05 00:04:23;;;;;;;11.68;6.43;;;;;;;5.67;75.82;100208.44;5054100;28;20049;-59
2022/02/05 00:06:53;;;;;;;8.52;5.82;;;;;;;5.57;74.72;100211.25;5068982;28;20052;-59
2022/02/05 00:09:37;;;;;;;9.38;5.65;;;;;;;5.60;75.33;100218.97;5072965;28;20735;-58
2022/02/05 00:12:24;;;;;;;10.88;5.88;;;;;;;5.64;75.85;100204.28;5060002;28;20051;-58
2022/02/05 00:15:14;;;;;;;10.27;5.45;;;;;;;5.52;74.36;100211.28;5055976;28;20048;-57
2022/02/05 00:33:11;;;;;;;9.23;5.35;;;;;;;5.37;74.55;100223.25;5060247;28;20056;-57
2022/02/05 00:40:07;;;;;;;9.90;5.30;;;;;;;5.24;75.26;100244.88;5064891;28;20051;-57
2022/02/05 00:42:40;;;;;;;6.75;5.03;;;;;;;5.33;74.48;100250.63;5057892;28;20067;-56
2022/02/05 00:45:13;;;;;;;10.82;4.75;;;;;;;5.38;74.67;100263.59;5053789;28;20060;-57
2022/02/05 00:47:43;;;;;;;7.03;4.53;;;;;;;5.23;73.69;100259.81;5062891;28;20053;-57
2022/02/05 00:50:17;;;;;;;10.23;4.53;;;;;;;5.34;74.77;100260.56;5070205;28;20536;-59
2022/02/05 00:52:57;;;;;;;7.38;4.75;;;;;;;5.18;74.54;100265.34;5054880;28;20060;-59
2022/02/05 00:55:29;;;;;;;;;;;;;;;5.21;73.55;100275.81;5059057;28;20068;-58
2022/02/05 00:58:02;;;;;;;9.13;4.63;;;;;;;5.24;73.21;100278.00;5073878;28;19944;-56
2022/02/05 01:00:30;;;;;;;8.60;4.68;;;;;;;5.27;75.32;100276.59;5065767;28;20075;-59
2022/02/05 01:02:59;;;;;;;12.48;4.63;;;;;;;5.03;74.05;100279.22;5073989;28;20060;-59
2022/02/05 01:05:26;;;;;;;10.77;4.80;;;;;;;5.18;75.14;100278.31;5067882;28;20052;-58
2022/02/05 01:07:56;;;;;;;7.45;4.65;;;;;;;5.11;73.98;100280.56;5070335;28;20048;-58
2022/02/05 01:10:25;;;;;;;;;;;;;;;5.14;73.48;100285.50;5068926;28;20059;-59
2022/02/05 01:13:00;;;;;;;10.63;5.70;;;;;;;5.17;74.44;100294.06;5060582;28;20387;-59
2022/02/05 01:15:34;;;;;;;10.32;5.20;;;;;;;5.21;74.88;100275.00;5061986;28;20053;-59
2022/02/05 01:18:05;;;;;;;8.02;4.60;;;;;;;5.17;74.31;100307.06;5069456;28;20053;-60
2022/02/05 01:23:32;;;;;;;7.63;5.57;;;;;;;5.28;74.94;100312.22;5044537;28;20049;-59
2022/02/05 01:26:13;;;;;;;10.20;6.05;;;;;;;5.38;75.34;100310.56;5064012;28;20541;-59
2022/02/05 01:28:43;;;;;;;8.25;5.43;;;;;;;5.35;74.37;100311.09;5069677;28;20051;-58
2022/02/05 01:31:10;;;;;;;9.10;6.22;;;;;;;5.35;75.25;100316.63;5067601;28;20482;-59
2022/02/05 01:33:56;;;;;;;12.35;6.20;;;;;;;5.16;75.48;100308.97;5062389;28;20045;-59
2022/02/05 01:39:27;;;;;;;10.50;6.82;;;;;;;5.27;75.94;100327.16;5065875;28;20040;-59
2022/02/05 01:50:41;;;;;;;11.32;6.05;;;;;;;5.03;75.66;100342.69;5077938;28;20052;-59
2022/02/05 01:53:24;;;;;;;8.05;5.43;;;;;;;4.72;74.37;100345.53;5072800;28;20052;-59
2022/02/05 01:56:12;;;;;;;8.77;5.95;;;;;;;4.94;75.57;100341.63;5070136;28;20417;-59
2022/02/05 01:58:54;;;;;;;11.52;6.63;;;;;;;4.92;76.25;100346.59;5071000;28;20048;-59
2022/02/05 02:07:08;;;;;;;9.25;5.07;;;;;;;4.80;75.37;100353.25;5063898;28;20060;-59
2022/02/05 02:09:52;;;;;;;8.50;4.97;;;;;;;4.69;75.35;100354.38;5070521;28;20412;-55
2022/02/05 02:12:23;;;;;;;7.63;4.72;;;;;;;4.73;75.57;100355.47;5071499;28;20060;-56
2022/02/05 02:14:58;;;;;;;9.10;5.20;;;;;;;4.72;75.92;100356.56;5067974;28;20055;-59
2022/02/05 02:18:03;;;;;;;8.13;4.70;;;;;;;4.67;75.83;100351.06;5052481;28;20049;-59
2022/02/05 02:20:35;;;;;;;10.07;5.00;;;;;;;4.61;75.95;100357.69;5056576;28;20063;-60
2022/02/05 02:23:20;;;;;;;7.35;4.35;;;;;;;4.48;75.81;100357.13;5069202;28;20075;-59
2022/02/05 02:26:00;;;;;;;10.30;4.63;;;;;;;4.59;76.23;100357.13;5070491;28;20044;-59
2022/02/05 02:28:45;;;;;;;9.60;4.80;;;;;;;4.61;75.92;100352.16;5071921;28;20064;-59
2022/02/05 02:31:18;;;;;;;8.88;4.80;;;;;;;4.64;76.14;100368.16;5068450;28;20048;-59
2022/02/05 02:33:50;;;;;;;7.68;4.70;;;;;;;4.64;75.92;100371.75;5057064;28;20051;-59
2022/02/05 02:36:29;;;;;;;8.43;4.53;;;;;;;4.53;74.98;100372.84;5065653;28;20059;-60
2022/02/05 02:39:04;;;;;;;10.65;5.60;;;;;;;4.62;75.04;100375.88;5058338;28;20053;-59
2022/02/05 02:41:37;;;;;;;7.68;4.80;;;;;;;4.66;75.27;100371.47;5052929;28;20484;-58
2022/02/05 02:44:05;;;;;;;8.25;5.05;;;;;;;4.75;75.42;100378.09;5070988;28;20063;-58
2022/02/05 02:46:32;;;;;;;10.35;4.97;;;;;;;4.64;74.92;100390.22;5067533;28;21319;-59
2022/02/05 02:49:02;;;;;;;10.13;4.90;;;;;;;4.59;75.15;100381.97;5066066;28;20192;-59
2022/02/05 02:57:16;;;;;;;12.27;5.55;;;;;;;4.72;76.00;100389.66;5056866;28;20076;-59
2022/02/05 02:59:56;;;;;;;11.18;5.63;;;;;;;4.73;75.47;100380.31;5061859;28;20048;-59
2022/02/05 03:02:26;;;;;;;10.18;5.40;;;;;;;4.68;74.64;100385.81;5069479;28;20064;-55
2022/02/05 03:04:54;;;;;;;;;;;;;;;4.51;74.79;100388.84;5072374;28;20048;-58
2022/02/05 03:07:22;;;;;;;7.65;5.15;;;;;;;4.63;76.21;100389.41;5062933;28;19932;-59
2022/02/05 03:09:51;;;;;;;12.18;5.45;;;;;;;4.69;76.16;100390.25;5069544;28;20378;-59
2022/02/05 03:12:19;;;;;;;7.97;5.18;;;;;;;4.62;75.54;100385.00;5069886;28;20489;-60
2022/02/05 03:14:47;;;;;;;13.02;5.10;;;;;;;4.47;75.78;100399.63;5070926;28;20056;-59
2022/02/05 03:17:19;;;;;;;10.77;5.40;;;;;;;4.54;75.26;100390.25;5070383;28;20052;-60
2022/02/05 03:19:49;;;;;;;8.35;4.78;;;;;;;4.46;75.26;100394.38;5069789;28;20405;-60
2022/02/05 03:22:20;;;;;;;10.05;4.50;;;;;;;4.38;75.89;100394.94;5071731;28;20061;-59
2022/02/05 03:24:49;;;;;;;12.75;5.05;;;;;;;4.38;75.54;100404.03;5056215;28;20064;-60
2022/02/05 03:27:19;;;;;;;10.60;4.78;;;;;;;4.41;75.80;100408.16;5058534;28;20432;-60
2022/02/05 03:29:48;;;;;;;6.70;4.15;;;;;;;4.42;75.81;100405.13;5075248;28;20063;-60
2022/02/05 03:32:17;;;;;;;11.40;4.22;;;;;;;4.47;75.35;100404.28;5075852;28;20490;-59
2022/02/05 03:34:44;;;;;;;9.15;4.28;;;;;;;4.46;75.82;100406.22;5069613;28;20515;-59
2022/02/05 03:37:13;;;;;;;8.88;4.05;;;;;;;4.43;75.57;100415.06;5072289;28;20052;-60
2022/02/05 03:39:40;;;;;;;10.77;4.75;;;;;;;4.53;75.18;100414.22;5071050;28;20123;-60
2022/02/05 03:42:08;;;;;;;8.60;4.40;;;;;;;4.53;75.43;100438.22;5061007;28;20064;-59
2022/02/05 03:44:37;;;;;;;8.30;4.15;;;;;;;4.46;74.77;100425.53;5074131;28;20485;-59
2022/02/05 03:47:05;;;;;;;10.70;3.77;;;;;;;4.63;74.26;100424.44;5073476;28;20049;-59
2022/02/05 03:49:32;;;;;;;9.77;4.10;;;;;;;4.55;75.01;100413.97;5065740;28;20057;-58
2022/02/05 03:51:59;;;;;;;9.38;3.45;;;;;;;4.52;74.99;100420.03;5074260;28;20076;-52
2022/02/05 03:54:29;;;;;;;16.33;4.97;;;;;;;4.42;74.09;100427.19;5071149;28;20049;-56
2022/02/05 03:56:56;;;;;;;;;;;;;;;4.46;74.36;100433.81;5068642;28;20053;-55
2022/02/05 03:59:24;;;;;;;9.32;4.18;;;;;;;4.54;75.38;100432.44;5073853;28;19925;-55
2022/02/05 04:01:53;;;;;;;9.00;3.85;;;;;;;4.51;74.69;100432.16;5073246;28;20051;-57
2022/02/05 04:04:21;;;;;;;11.65;4.35;;;;;;;4.58;74.99;100441.84;5073819;28;20056;-57
2022/02/05 04:06:49;;;;;;;10.80;4.13;;;;;;;4.59;74.76;100442.66;5074461;28;20048;-58
2022/02/05 04:09:21;;;;;;;9.18;4.07;;;;;;;4.72;74.60;100455.88;5067271;28;20458;-59
2022/02/05 04:17:20;;;;;;;11.10;3.92;;;;;;;4.51;75.01;100449.53;5080739;28;20063;-57
2022/02/05 04:19:48;;;;;;;12.63;4.55;;;;;;;4.63;74.79;100457.56;5071752;28;20056;-58
2022/02/05 04:22:15;;;;;;;8.00;4.00;;;;;;;4.55;74.33;100460.84;5066772;28;20048;-56
2022/02/05 04:24:43;;;;;;;11.80;4.10;;;;;;;4.58;74.56;100463.06;5068104;28;20053;-57
2022/02/05 04:27:13;;;;;;;10.38;4.22;;;;;;;4.58;74.52;100452.03;5072468;28;20041;-58
2022/02/05 04:29:40;;;;;;;;;;;;;;;4.57;74.21;100458.66;5070616;28;20053;-56
2022/02/05 04:32:08;;;;;;;7.95;3.47;;;;;;;4.62;74.75;100475.19;5069363;28;20027;-59
2022/02/05 04:34:37;;;;;;;8.68;3.72;;;;;;;4.69;74.63;100470.25;5063910;28;20052;-57
2022/02/05 04:37:07;;;;;;;15.77;4.00;;;;;;;4.74;74.57;100473.00;5073317;28;20416;-58
2022/02/05 04:39:37;;;;;;;8.35;3.25;;;;;;;4.87;73.86;100469.69;5065162;28;20048;-58
2022/02/05 04:42:13;;;;;;;9.07;4.10;;;;;;;4.89;73.83;100469.41;5073373;28;20052;-56
2022/02/05 04:45:00;;;;;;;9.30;3.90;;;;;;;4.81;73.84;100473.56;5071955;28;20053;-58
2022/02/05 04:47:51;;;;;;;8.43;3.72;;;;;;;4.95;73.67;100475.75;5070721;28;20044;-58
2022/02/05 04:50:38;;;;;;;13.18;3.90;;;;;;;4.96;73.11;100480.19;5068774;28;20056;-57
2022/02/05 04:56:12;;;;;;;11.43;3.85;;;;;;;4.99;72.95;100487.91;5052962;28;20067;-59
2022/02/05 04:59:09;;;;;;;8.25;3.95;;;;;;;5.01;72.11;100472.72;5069972;28;20064;-58
2022/02/05 05:01:55;;;;;;;9.93;3.72;;;;;;;5.00;72.13;100497.84;5063201;28;20486;-53
2022/02/05 05:04:34;;;;;;;9.13;4.30;;;;;;;5.06;72.62;100496.72;5058945;28;20477;-53
2022/02/05 05:09:55;;;;;;;12.35;3.60;;;;;;;4.95;72.15;100509.69;5041463;28;20048;-55
2022/02/05 05:12:31;;;;;;;8.88;3.30;;;;;;;5.22;72.52;100495.59;5072817;28;20055;-53
2022/02/05 05:20:34;;;;;;;7.97;3.35;;;;;;;5.18;71.53;100502.78;5069287;28;20056;-57
2022/02/05 05:23:02;;;;;;;7.55;3.58;;;;;;;5.18;71.09;100505.56;5057107;28;20052;-59
2022/02/05 05:25:30;;;;;;;9.75;3.97;;;;;;;5.19;71.15;100512.75;5070773;28;20530;-56
2022/02/05 05:27:57;;;;;;;8.07;3.72;;;;;;;5.23;71.81;100519.38;5071993;28;20049;-59
2022/02/05 05:30:24;;;;;;;8.13;3.58;;;;;;;5.35;71.32;100527.34;5069953;28;20053;-55
2022/02/05 05:32:52;;;;;;;7.10;3.58;;;;;;;5.24;70.97;100521.00;5071156;28;20068;-53
2022/02/05 05:35:19;;;;;;;7.03;3.20;;;;;;;5.24;70.49;100534.00;5072150;28;20052;-57
2022/02/05 05:37:49;;;;;;;9.00;3.15;;;;;;;5.39;71.94;100528.44;5052629;28;20053;-56
2022/02/05 05:40:18;;;;;;;9.20;4.00;;;;;;;5.46;71.20;100533.72;5062256;28;20055;-58
2022/02/05 05:42:52;;;;;;;9.60;3.92;;;;;;;5.35;70.87;100527.34;5064990;28;20052;-59
2022/02/05 05:45:31;;;;;;;10.05;3.58;;;;;;;5.20;70.38;100536.47;5056769;28;20060;-59
2022/02/05 05:48:06;;;;;;;7.17;3.27;;;;;;;5.48;70.93;100548.03;5066511;28;20053;-57
2022/02/05 05:50:58;;;;;;;11.20;3.63;;;;;;;5.42;70.87;100543.66;5068028;28;20478;-58
2022/02/05 05:53:27;;;;;;;9.70;3.97;;;;;;;5.49;70.25;100544.19;5056138;28;20473;-56
2022/02/05 05:55:58;;;;;;;8.93;3.37;;;;;;;5.48;70.74;100543.38;5065095;28;20044;-59
2022/02/05 05:58:26;;;;;;;8.88;4.40;;;;;;;5.51;70.81;100543.91;5062959;28;20057;-57
2022/02/05 06:00:55;;;;;;;8.40;3.55;;;;;;;5.48;70.97;100548.91;5058031;28;20049;-58
2022/02/05 06:03:23;;;;;;;11.18;4.03;;;;;;;5.52;70.24;100551.91;5058958;28;20401;-58
2022/02/05 06:05:50;;;;;;;13.57;4.78;;;;;;;5.40;70.48;100562.44;5055399;28;20064;-59
2022/02/05 06:08:19;;;;;;;7.45;3.70;;;;;;;5.38;70.31;100565.47;5055769;28;20049;-59
2022/02/05 06:10:46;;;;;;;7.32;3.83;;;;;;;5.43;71.32;100567.41;5056535;28;20052;-58
2022/02/05 06:13:15;;;;;;;7.28;4.20;;;;;;;5.53;70.45;100570.16;5057328;28;20049;-59
2022/02/05 06:15:44;;;;;;;11.55;4.60;;;;;;;5.57;69.60;100567.66;5059549;28;20111;-57
2022/02/05 06:18:11;;;;;;;9.75;4.20;;;;;;;5.65;69.98;100576.22;5067468;28;20056;-58
2022/02/05 06:20:39;;;;;;;9.73;4.35;;;;;;;5.55;69.73;100575.41;5055378;28;20059;-58
2022/02/05 06:23:06;;;;;;;6.30;4.07;;;;;;;5.49;71.01;100583.69;5054770;28;20651;-56
2022/02/05 06:25:41;;;;;;;8.68;4.50;;;;;;;5.58;69.78;100574.84;5058022;28;20059;-59
2022/02/05 06:28:09;;;;;;;9.68;5.05;;;;;;;5.66;70.22;100588.91;5057843;28;20068;-59
2022/02/05 06:30:38;;;;;;;8.50;4.47;;;;;;;5.56;70.32;100583.41;5056207;28;20044;-56
2022/02/05 06:33:05;;;;;;;10.00;4.43;;;;;;;5.62;70.13;100584.22;5057427;28;20052;-59
2022/02/05 06:35:32;;;;;;;8.75;4.38;;;;;;;5.63;69.74;100594.19;5054756;28;20045;-54
2022/02/05 06:38:00;;;;;;;9.98;4.65;;;;;;;5.60;70.06;100592.78;5053418;28;20059;-58
2022/02/05 06:40:27;;;;;;;12.70;5.47;;;;;;;5.57;69.29;100589.78;5057386;28;20048;-57
2022/02/05 06:42:55;;;;;;;12.63;5.60;;;;;;;5.41;69.61;100591.72;5069541;28;20049;-53
2022/02/05 06:45:22;;;;;;;11.88;5.22;;;;;;;5.49;69.59;100591.16;5064626;28;20489;-59
2022/02/05 06:47:51;;;;;;;10.60;5.03;;;;;;;5.48;70.00;100595.00;5070969;28;20049;-58
2022/02/05 06:50:22;;;;;;;7.65;4.47;;;;;;;5.41;70.09;100592.53;5070343;28;20049;-58
2022/02/05 06:52:49;;;;;;;12.40;4.47;;;;;;;5.45;69.57;100596.41;5063973;28;20045;-58
2022/02/05 06:55:17;;;;;;;8.93;4.70;;;;;;;5.41;69.91;100597.22;5061323;28;20056;-57
2022/02/05 06:57:44;;;;;;;12.27;5.13;;;;;;;5.34;69.80;100596.69;5074284;28;20056;-58
2022/02/05 07:00:13;;;;;;;7.10;4.43;;;;;;;5.21;70.05;100587.84;5062324;28;20151;-57
2022/02/05 07:02:43;;;;;;;10.13;4.00;;;;;;;5.09;70.56;100617.66;5056961;28;20052;-59
2022/02/05 07:05:11;;;;;;;;;;;;;;;5.10;70.10;100605.50;5055648;28;20052;-59
2022/02/05 07:07:40;;;;;;;9.15;3.72;;;;;;;5.05;69.87;100609.09;5061910;28;19927;-56
2022/02/05 07:10:09;;;;;;;13.25;4.80;;;;;;;5.04;69.77;100617.63;5061456;28;20102;-58
2022/02/05 07:12:49;;;;;;;9.40;4.70;;;;;;;4.92;69.15;100628.13;5059305;28;20059;-58
2022/02/05 07:15:21;;;;;;;11.73;4.82;;;;;;;5.09;70.75;100623.19;5063381;28;20041;-59
2022/02/05 07:17:56;;;;;;;13.38;4.97;;;;;;;5.23;70.26;100623.47;5061329;28;20057;-59
2022/02/05 07:20:35;;;;;;;12.68;6.07;;;;;;;5.26;69.88;100628.44;5066730;28;20052;-55
2022/02/05 07:23:25;;;;;;;13.27;6.05;;;;;;;5.23;69.30;100624.31;5061642;28;20767;-58
2022/02/05 07:31:23;;;;;;;14.10;5.57;;;;;;;5.26;69.56;100629.25;5063403;28;20060;-59
2022/02/05 07:33:50;;;;;;;9.77;5.20;;;;;;;5.28;69.74;100634.53;5071463;28;20040;-59
2022/02/05 07:36:20;;;;;;;10.65;4.68;;;;;;;5.38;69.65;100629.00;5067104;28;20060;-57
2022/02/05 07:38:48;;;;;;;10.07;4.75;;;;;;;5.53;69.48;100630.94;5068903;28;20128;-59
2022/02/05 07:41:15;;;;;;;9.70;4.40;;;;;;;5.66;69.88;100635.06;5067942;28;20501;-58
2022/02/05 07:43:43;;;;;;;11.65;4.43;;;;;;;5.57;69.09;100633.97;5063368;28;20264;-59
2022/02/05 07:46:12;;;;;;;10.23;4.35;;;;;;;5.47;69.75;100635.63;5067928;28;20053;-59
2022/02/05 07:48:41;;;;;;;7.75;4.40;;;;;;;5.61;68.53;100643.38;5056528;28;20056;-59
2022/02/05 07:51:09;;;;;;;10.88;4.82;;;;;;;5.70;67.96;100650.81;5061846;28;20072;-58
2022/02/05 07:53:38;;;;;;;10.98;4.88;;;;;;;5.61;68.09;100662.72;5061565;28;20056;-59
2022/02/05 07:56:05;;;;;;;7.60;4.45;;;;;;;5.55;68.85;100653.59;5057409;28;20064;-59
2022/02/05 07:58:34;;;;;;;9.85;4.50;;;;;;;5.75;68.58;100651.91;5082855;28;20056;-57
2022/02/05 08:01:01;;;;;;;9.70;5.47;;;;;;;5.79;68.75;100655.78;5067747;28;20071;-59
2022/02/05 08:03:29;;;;;;;10.70;5.20;;;;;;;5.69;68.56;100664.91;5079833;28;20048;-57
2022/02/05 08:05:59;;;;;;;9.93;4.15;;;;;;;5.72;68.94;100658.84;5069298;28;20053;-56
2022/02/05 08:08:29;;;;;;;10.75;4.97;;;;;;;5.83;68.14;100660.47;5069216;28;20053;-59
2022/02/05 08:11:02;;;;;;;11.15;4.97;;;;;;;5.87;68.17;100660.75;5068686;28;20497;-54
2022/02/05 08:13:31;;;;;;;11.65;4.88;;;;;;;5.99;67.81;100668.78;5069347;28;20053;-58
2022/02/05 08:16:11;;;;;;;11.02;4.53;;;;;;;5.96;67.28;100672.09;5061704;28;20052;-57
2022/02/05 08:18:39;;;;;;;11.13;4.57;;;;;;;6.00;67.23;100685.09;5060886;28;20473;-54
2022/02/05 08:21:06;;;;;;;9.23;4.47;;;;;;;5.95;66.82;100679.56;5057755;28;20516;-58
2022/02/05 08:23:37;;;;;;;9.25;4.80;;;;;;;5.99;66.96;100679.84;5064950;28;20052;-59
2022/02/05 08:26:06;;;;;;;11.00;4.60;;;;;;;5.90;66.96;100682.31;5053676;28;20053;-58
2022/02/05 08:28:35;;;;;;;9.77;4.47;;;;;;;5.88;66.96;100690.06;5070708;28;20068;-58
2022/02/05 08:31:02;;;;;;;7.82;4.25;;;;;;;5.75;67.31;100685.91;5071051;28;20382;-59
2022/02/05 08:33:29;;;;;;;10.15;4.97;;;;;;;5.92;67.58;100696.66;5075365;28;20064;-54
2022/02/05 08:35:57;;;;;;;6.35;4.28;;;;;;;5.95;66.21;100696.16;5069502;28;20059;-57
2022/02/05 08:38:24;;;;;;;10.75;4.55;;;;;;;6.13;66.06;100691.97;5074280;28;20044;-56
2022/02/05 08:40:52;;;;;;;9.68;4.63;;;;;;;6.40;65.58;100694.41;5085037;28;20048;-56
2022/02/05 08:43:21;;;;;;;6.80;4.22;;;;;;;6.41;65.71;100698.03;5062932;28;20393;-58
2022/02/05 08:45:48;;;;;;;9.90;4.13;;;;;;;6.50;65.51;100699.09;5057491;28;20053;-59
2022/02/05 08:48:15;;;;;;;9.65;4.10;;;;;;;6.66;64.14;100711.78;5058675;28;20052;-58
2022/02/05 08:50:43;;;;;;;11.10;3.72;;;;;;;6.79;63.97;100713.09;5055933;28;20500;-54
2022/02/05 08:53:17;;;;;;;9.10;4.60;;;;;;;6.79;63.32;100721.41;5057860;28;20052;-56
2022/02/05 08:55:45;;;;;;;9.10;4.10;;;;;;;6.95;63.80;100705.56;5059484;28;20056;-54
2022/02/05 08:58:14;;;;;;;10.05;4.15;;;;;;;7.26;62.91;100706.19;5059932;28;20049;-56
2022/02/05 09:00:48;;;;;;;7.63;4.15;;;;;;;7.24;62.35;100705.66;5056822;28;20053;-56
2022/02/05 09:03:26;;;;;;;9.98;4.30;;;;;;;7.18;62.95;100709.59;5067565;28;20059;-59
2022/02/05 09:05:54;;;;;;;10.70;4.20;;;;;;;6.79;63.68;100718.63;5067294;28;20402;-59
2022/02/05 09:08:26;;;;;;;7.63;3.35;;;;;;;6.82;63.68;100697.84;5061363;28;20059;-55
2022/02/05 09:11:01;;;;;;;9.27;3.90;;;;;;;7.08;63.46;100701.34;5067999;28;20057;-53
2022/02/05 09:16:23;;;;;;;8.80;4.18;;;;;;;7.10;63.62;100690.81;5062478;28;20489;-57
2022/02/05 09:18:53;;;;;;;8.23;4.47;;;;;;;6.86;63.45;100699.78;5061057;28;20059;-58
2022/02/05 09:21:21;;;;;;;;;;;;;;;6.64;64.77;100691.03;5069851;28;20048;-58
2022/02/05 09:23:53;;;;;;;18.83;4.68;;;;;;;6.71;64.53;100700.66;5070063;28;20262;-57
2022/02/05 09:26:24;;;;;;;10.75;4.28;;;;;;;6.62;64.55;100696.84;5077313;28;20052;-55
2022/02/05 09:28:52;;;;;;;10.52;3.55;;;;;;;6.96;64.67;100700.84;5058152;28;20056;-59
2022/02/05 09:31:28;;;;;;;6.60;4.30;;;;;;;7.13;63.04;100704.06;5068485;28;20489;-59
2022/02/05 09:33:57;;;;;;;8.57;3.75;;;;;;;7.42;62.90;100695.84;5071168;28;20055;-54
2022/02/05 09:36:26;;;;;;;9.55;4.18;;;;;;;7.60;62.27;100694.34;5060235;28;20045;-59
2022/02/05 09:38:55;;;;;;;12.18;4.35;;;;;;;7.29;62.48;100697.34;5060164;28;20048;-59
2022/02/05 09:41:23;;;;;;;12.90;5.03;;;;;;;7.41;62.61;100693.38;5059602;28;20394;-59
2022/02/05 09:43:50;;;;;;;10.40;4.05;;;;;;;7.21;62.89;100697.94;5069821;28;20343;-59
2022/02/05 09:46:19;;;;;;;10.68;4.20;;;;;;;7.42;62.69;100697.81;5071273;28;20057;-58
2022/02/05 09:48:48;;;;;;;9.67;3.70;;;;;;;7.44;62.26;100704.72;5071639;28;20056;-59
2022/02/05 09:51:26;;;;;;;10.82;3.60;;;;;;;7.69;61.18;100713.97;5069185;28;20471;-59
2022/02/05 09:53:56;;;;;;;8.48;3.90;;;;;;;7.79;60.88;100710.25;5066579;28;20053;-58
2022/02/05 09:56:26;;;;;;;8.30;3.55;;;;;;;8.36;59.89;100705.88;5070623;28;20041;-59
2022/02/05 09:58:54;;;;;;;9.52;3.60;;;;;;;8.05;59.33;100714.47;5072411;28;20056;-55
2022/02/05 10:01:24;;;;;;;10.73;3.40;;;;;;;7.94;60.67;100718.47;5068673;28;20539;-56
2022/02/05 10:03:57;;;;;;;7.35;3.20;;;;;;;8.16;59.32;100703.28;5060478;28;20059;-59
2022/02/05 10:06:29;;;;;;;11.00;3.10;;;;;;;8.36;58.75;100705.00;5067173;28;20040;-59
2022/02/05 10:09:00;;;;;;;8.52;3.45;;;;;;;8.30;59.20;100705.06;5063235;28;20053;-59
2022/02/05 10:11:30;;;;;;;6.63;3.40;;;;;;;8.15;59.95;100702.47;5063718;28;20057;-59
2022/02/05 10:14:21;;;;;;;7.97;3.13;;;;;;;8.18;59.53;100717.69;5069404;28;20512;-59
2022/02/05 10:16:54;;;;;;;12.15;3.58;;;;;;;7.54;60.63;100726.00;5070122;28;20044;-58
2022/02/05 10:19:24;;;;;;;7.30;3.05;;;;;;;8.04;59.55;100726.72;5060995;28;20048;-59
2022/02/05 10:22:05;;;;;;;5.82;3.08;;;;;;;8.08;59.32;100741.66;5060567;28;20492;-60
2022/02/05 10:24:33;;;;;;;11.43;3.40;;;;;;;7.66;59.93;100737.53;5056006;28;20045;-60
2022/02/05 10:27:02;;;;;;;10.93;3.30;;;;;;;7.82;59.94;100731.88;5053987;28;20064;-58
2022/02/05 10:29:32;;;;;;;9.67;3.33;;;;;;;8.13;59.17;100738.00;5061048;28;20111;-57
2022/02/05 10:32:07;;;;;;;11.23;3.60;;;;;;;8.27;59.40;100722.34;5062572;28;20084;-58
2022/02/05 10:34:54;;;;;;;8.32;3.10;;;;;;;8.41;59.19;100732.75;5067868;28;20052;-59
2022/02/05 10:37:27;;;;;;;8.15;3.28;;;;;;;8.72;57.93;100727.69;5063789;28;20052;-58
2022/02/05 10:43:03;;;;;;;6.22;2.83;;;;;;;8.42;58.22;100732.47;5054412;28;20060;-58
2022/02/05 10:45:39;;;;;;;7.65;3.38;;;;;;;8.30;58.35;100718.97;5063102;28;20049;-58
2022/02/05 10:48:07;;;;;;;10.77;4.03;;;;;;;8.07;58.54;100744.72;5061079;28;20051;-58
2022/02/05 10:50:35;;;;;;;7.13;3.40;;;;;;;8.08;58.49;100730.56;5068423;28;20505;-57
2022/02/05 10:53:10;;;;;;;8.00;3.38;;;;;;;7.98;59.16;100730.66;5070559;28;20401;-58
2022/02/05 10:55:50;;;;;;;7.72;2.58;;;;;;;8.31;58.55;100720.59;5066383;28;20052;-57
2022/02/05 11:07:08;;;;;;;6.32;2.90;;;;;;;8.90;56.98;100701.06;5079450;28;20059;-58
2022/02/05 11:09:38;;;;;;;9.68;2.92;;;;;;;9.02;56.17;100697.88;5083964;28;20040;-56
2022/02/05 11:20:30;;;;;;;7.85;2.85;;;;;;;10.10;52.46;100703.44;5071478;28;20068;-57
2022/02/05 11:23:03;;;;;;;8.63;2.53;;;;;;;9.25;54.18;100710.88;5071156;28;20409;-57
2022/02/05 11:25:36;;;;;;;7.43;2.95;;;;;;;10.52;52.23;100712.69;5070031;28;20056;-57
2022/02/05 11:28:05;;;;;;;10.48;3.70;;;;;;;9.75;52.30;100710.41;5068463;28;20059;-58
2022/02/05 11:30:39;;;;;;;10.00;3.10;;;;;;;9.89;51.84;100724.38;5069753;28;20057;-59
2022/02/05 11:33:19;;;;;;;10.55;2.78;;;;;;;9.55;52.56;100717.13;5070392;28;20485;-58
2022/02/05 11:36:09;;;;;;;;;;;;;;;9.45;52.42;100707.00;5052888;28;20045;-55
2022/02/05 11:38:38;;;;;;;7.13;2.25;;;;;;;10.97;49.04;100698.97;5051428;28;20282;-58
2022/02/05 11:41:07;;;;;;;6.88;2.75;;;;;;;10.01;50.92;100696.88;5051302;28;20059;-56
2022/02/05 11:43:36;;;;;;;8.57;3.08;;;;;;;9.78;51.23;100683.94;5051470;28;20056;-55
2022/02/05 11:46:12;;;;;;;5.28;2.60;;;;;;;9.41;51.46;100691.19;5051198;28;20056;-58
2022/02/05 11:48:42;;;;;;;6.57;2.53;;;;;;;9.20;52.66;100687.88;5065350;28;20636;-57
2022/02/05 11:51:12;;;;;;;8.27;3.38;;;;;;;9.61;51.31;100681.72;5074273;28;20052;-59
2022/02/05 11:54:07;;;;;;;7.00;2.47;;;;;;;9.35;51.76;100688.50;5074765;28;20056;-58
2022/02/05 11:56:50;;;;;;;5.60;2.28;;;;;;;11.61;45.51;100659.00;5074889;28;20056;-55
2022/02/05 11:59:18;;;;;;;9.43;2.78;;;;;;;10.21;49.10;100700.47;5074912;28;20052;-59
2022/02/05 12:01:46;;;;;;;7.70;2.63;;;;;;;9.19;51.51;100695.41;5075082;28;20063;-56
2022/02/05 12:04:17;;;;;;;6.28;2.28;;;;;;;9.26;51.31;100687.53;5075017;28;20052;-58
2022/02/05 12:06:52;;;;;;;8.18;2.35;;;;;;;9.10;51.53;100684.13;5074013;28;20160;-58
2022/02/05 12:09:37;;;;;;;6.72;2.63;;;;;;;9.07;51.81;100681.97;5074870;28;20482;-58
2022/02/05 12:12:46;;;;;;;9.77;2.35;;;;;;;9.16;51.82;100689.66;5074952;28;20357;-58
2022/02/05 12:15:24;;;;;;;7.65;2.30;;;;;;;8.76;52.44;100689.88;5074576;28;20045;-58
2022/02/05 12:18:22;;;;;;;6.30;2.63;;;;;;;8.88;53.02;100683.88;5074432;28;20052;-58
2022/02/05 12:21:11;;;;;;;6.80;2.33;;;;;;;9.00;52.75;100681.50;5061796;28;20075;-58
2022/02/05 12:26:57;;;;;;;7.90;2.72;;;;;;;8.79;53.06;100689.28;5032586;28;20053;-56
2022/02/05 12:29:29;;;;;;;5.93;2.38;;;;;;;8.33;53.97;100675.91;5063927;28;20048;-57
2022/02/05 12:31:58;;;;;;;5.72;2.42;;;;;;;8.79;53.59;100667.06;5074580;28;20069;-58
2022/02/05 12:34:34;;;;;;;8.98;2.60;;;;;;;8.87;53.29;100683.06;5067410;28;20053;-58
2022/02/05 12:37:03;;;;;;;8.60;3.03;;;;;;;8.89;53.52;100664.16;5054401;28;20045;-58
2022/02/05 12:39:33;;;;;;;6.88;2.63;;;;;;;8.90;53.37;100656.63;5054151;28;20235;-58
2022/02/05 12:42:03;;;;;;;5.63;2.20;;;;;;;8.91;52.71;100669.41;5053909;28;20057;-58
2022/02/05 12:44:36;;;;;;;6.00;2.65;;;;;;;10.23;49.72;100664.78;5054123;28;20453;-58
2022/02/05 12:47:12;;;;;;;6.38;2.67;;;;;;;9.82;50.93;100657.16;5054270;28;20053;-57
2022/02/05 12:49:49;;;;;;;8.63;2.80;;;;;;;10.12;50.03;100641.88;5070248;28;20052;-58
2022/02/05 12:52:16;;;;;;;8.32;3.13;;;;;;;10.32;49.62;100654.63;5074046;28;20055;-55
2022/02/05 12:54:47;;;;;;;6.68;2.92;;;;;;;9.99;50.09;100648.25;5073885;28;20056;-58
2022/02/05 12:57:19;;;;;;;7.85;3.22;;;;;;;9.81;50.79;100647.19;5074050;28;20425;-58
2022/02/05 12:59:48;;;;;;;8.63;3.72;;;;;;;10.57;49.31;100642.97;5073429;28;20055;-57
2022/02/05 13:02:21;;;;;;;6.57;4.57;;;;;;;13.31;41.41;100625.22;5067213;28;20044;-57
2022/02/05 13:04:50;;;;;;;7.68;3.40;;;;;;;15.86;36.84;100623.59;5053664;28;20057;-57
2022/02/05 13:07:21;;;;;;;6.50;3.30;;;;;;;16.85;35.23;100622.53;5053811;28;20053;-58
2022/02/05 13:09:50;;;;;;;8.02;3.67;;;;;;;16.89;33.40;100623.47;5053467;28;20060;-57
2022/02/05 13:12:21;;;;;;;7.75;3.17;;;;;;;17.01;33.63;100623.47;5052926;28;20049;-59
2022/02/05 13:14:53;;;;;;;5.78;3.15;;;;;;;16.74;34.80;100624.97;5063222;28;20482;-59
2022/02/05 13:17:45;;;;;;;6.82;2.42;;;;;;;15.25;36.02;100626.94;5073392;28;20052;-58
2022/02/05 13:25:53;;;;;;;7.95;2.80;;;;;;;12.39;42.13;100628.78;5059664;28;20139;-58
2022/02/05 13:28:38;;;;;;;6.55;2.28;;;;;;;13.93;39.04;100620.34;5053244;28;20486;-55
2022/02/05 13:34:03;;;;;;;7.68;2.65;;;;;;;13.47;39.51;100619.09;5068475;28;20064;-56
2022/02/05 13:36:45;;;;;;;5.15;2.70;;;;;;;13.50;38.89;100607.22;5078427;28;20068;-58
2022/02/05 13:39:38;;;;;;;7.63;2.97;;;;;;;12.77;39.81;100616.25;5076786;28;20048;-58